Merlot Commodore — WDD7653 — position and weather

sailwx.info

Track history (hours):
 
Tides and Currents Weather Stations Pressure Air Temp Water Temp Dewpoint Dewpoint Depression Visibility Wind Speed Wind Dir Waves Ship Positions

Merlot Commodore

Owner: Proescher, Ward H, Alameda, CA. More information available from US FCC via Universal Licensing System and Coast Guard Vessel Documentation Center.

Last reported at 2018-Feb-24 05:54 UTC. Time now 2018-Feb-26 02:08 UTC.
Position N 37°47' W 122°17'.

Length 24 m; draft 1.8 m.

Type: Passenger vessel. MMSI: 367189370.

Date/timePositionNaut miles runAvg speedWind from/ knotsBaromVisibWave heightAir tempDewpointWater temp
2018-Feb-24 05:54N 37°47' W 122°17'1 2.8
2018-Feb-24 05:31N 37°48' W 122°18'4 7.1
2018-Feb-24 05:00N 37°47' W 122°23'3 5.4
2018-Feb-24 04:30N 37°49' W 122°25'1 2.7
2018-Feb-24 04:00N 37°48' W 122°24'3 6.9
2018-Feb-24 03:30N 37°48' W 122°20'2 4.6
2018-Feb-24 03:00N 37°47' W 122°17'0 0.0
2018-Feb-24 02:30N 37°47' W 122°17'0 0.0
2018-Feb-23 22:14N 37°47' W 122°17'0 0.0
2018-Feb-23 22:01N 37°47' W 122°17'  
2018-Feb-19 23:59N 37°47' W 122°17'0 0.0
2018-Feb-19 23:30N 37°48' W 122°17'0 0.0
2018-Feb-18 05:13N 37°47' W 122°17'0 0.0
2018-Feb-18 05:00N 37°47' W 122°17'3 5.5
2018-Feb-18 04:31N 37°48' W 122°20'4 8.4
2018-Feb-18 04:00N 37°50' W 122°25'2 3.1
2018-Feb-18 03:30N 37°48' W 122°24'4 8.4
2018-Feb-18 03:00N 37°48' W 122°18'1 2.9
2018-Feb-18 02:30N 37°47' W 122°17'0 0.0
2018-Feb-18 02:00N 37°47' W 122°17'0 0.0
2018-Feb-18 01:30N 37°47' W 122°17'0 0.0
2018-Feb-18 01:00N 37°47' W 122°17'0 0.0
2018-Feb-18 00:30N 37°47' W 122°17'0 0.0
2018-Feb-18 00:00N 37°47' W 122°17'0 0.0
2018-Feb-17 23:30N 37°47' W 122°17'  
Track history (hours):
 
Tides and Currents Weather Stations Pressure Air Temp Water Temp Dewpoint Dewpoint Depression Visibility Wind Speed Wind Dir Waves Ship Positions

Merlot Commodore

Owner: Proescher, Ward H, Alameda, CA. More information available from US FCC via Universal Licensing System and Coast Guard Vessel Documentation Center.

Last reported at 2018-Feb-24 05:54 UTC. Time now 2018-Feb-26 02:08 UTC.
Position N 37°47' W 122°17'.

Length 24 m; draft 1.8 m.

Type: Passenger vessel. MMSI: 367189370.

Date/timePositionNaut miles runAvg speedWind from/ knotsBaromVisibWave heightAir tempDewpointWater temp
2018-Feb-24 05:54N 37°47' W 122°17'1 2.8
2018-Feb-24 05:31N 37°48' W 122°18'4 7.1
2018-Feb-24 05:00N 37°47' W 122°23'3 5.4
2018-Feb-24 04:30N 37°49' W 122°25'1 2.7
2018-Feb-24 04:00N 37°48' W 122°24'3 6.9
2018-Feb-24 03:30N 37°48' W 122°20'2 4.6
2018-Feb-24 03:00N 37°47' W 122°17'0 0.0
2018-Feb-24 02:30N 37°47' W 122°17'0 0.0
2018-Feb-23 22:14N 37°47' W 122°17'0 0.0
2018-Feb-23 22:01N 37°47' W 122°17'  
2018-Feb-19 23:59N 37°47' W 122°17'0 0.0
2018-Feb-19 23:30N 37°48' W 122°17'0 0.0
2018-Feb-18 05:13N 37°47' W 122°17'0 0.0
2018-Feb-18 05:00N 37°47' W 122°17'3 5.5
2018-Feb-18 04:31N 37°48' W 122°20'4 8.4
2018-Feb-18 04:00N 37°50' W 122°25'2 3.1
2018-Feb-18 03:30N 37°48' W 122°24'4 8.4
2018-Feb-18 03:00N 37°48' W 122°18'1 2.9
2018-Feb-18 02:30N 37°47' W 122°17'0 0.0
2018-Feb-18 02:00N 37°47' W 122°17'0 0.0
2018-Feb-18 01:30N 37°47' W 122°17'0 0.0
2018-Feb-18 01:00N 37°47' W 122°17'0 0.0
2018-Feb-18 00:30N 37°47' W 122°17'0 0.0
2018-Feb-18 00:00N 37°47' W 122°17'0 0.0
2018-Feb-17 23:30N 37°47' W 122°17'  

Dump ship's entire track history